sensor_id;sensor_type;location;lat;lon;timestamp;pressure;altitude;pressure_sealevel;temperature;humidity
6387;BME280;3226;42.162;24.756;2022-07-22T00:01:50;99636.50;;;23.63;57.04
6387;BME280;3226;42.162;24.756;2022-07-22T00:04:18;99632.03;;;23.57;57.52
6387;BME280;3226;42.162;24.756;2022-07-22T00:06:46;99638.50;;;23.75;56.90
6387;BME280;3226;42.162;24.756;2022-07-22T00:09:15;99640.75;;;23.78;56.75
6387;BME280;3226;42.162;24.756;2022-07-22T00:11:43;99639.97;;;23.71;56.96
6387;BME280;3226;42.162;24.756;2022-07-22T00:14:11;99642.56;;;23.84;56.41
6387;BME280;3226;42.162;24.756;2022-07-22T00:16:40;99640.56;;;23.73;56.90
6387;BME280;3226;42.162;24.756;2022-07-22T00:19:08;99646.69;;;23.80;56.99
6387;BME280;3226;42.162;24.756;2022-07-22T00:21:36;99653.59;;;23.62;57.57
6387;BME280;3226;42.162;24.756;2022-07-22T00:24:04;99640.22;;;23.62;57.45
6387;BME280;3226;42.162;24.756;2022-07-22T00:26:34;99650.13;;;23.55;57.59
6387;BME280;3226;42.162;24.756;2022-07-22T00:29:02;99651.09;;;23.67;57.43
6387;BME280;3226;42.162;24.756;2022-07-22T00:31:31;99656.84;;;23.71;57.35
6387;BME280;3226;42.162;24.756;2022-07-22T00:33:59;99647.38;;;23.68;57.29
6387;BME280;3226;42.162;24.756;2022-07-22T00:36:28;99646.84;;;23.53;57.82
6387;BME280;3226;42.162;24.756;2022-07-22T00:38:57;99634.31;;;23.47;57.42
6387;BME280;3226;42.162;24.756;2022-07-22T00:41:26;99657.16;;;23.43;58.03
6387;BME280;3226;42.162;24.756;2022-07-22T00:43:58;99649.28;;;23.54;57.66
6387;BME280;3226;42.162;24.756;2022-07-22T00:46:27;99645.00;;;23.47;57.59
6387;BME280;3226;42.162;24.756;2022-07-22T00:48:56;99655.81;;;23.72;57.00
6387;BME280;3226;42.162;24.756;2022-07-22T00:51:26;99652.91;;;23.74;56.96
6387;BME280;3226;42.162;24.756;2022-07-22T00:53:57;99645.56;;;23.62;57.27
6387;BME280;3226;42.162;24.756;2022-07-22T00:56:27;99649.31;;;23.48;58.07
6387;BME280;3226;42.162;24.756;2022-07-22T00:58:59;99648.50;;;23.47;57.83
6387;BME280;3226;42.162;24.756;2022-07-22T01:01:28;99644.44;;;23.38;58.22
6387;BME280;3226;42.162;24.756;2022-07-22T01:03:56;99648.88;;;23.51;57.78
6387;BME280;3226;42.162;24.756;2022-07-22T01:06:27;99652.84;;;23.42;58.49
6387;BME280;3226;42.162;24.756;2022-07-22T01:08:56;99648.56;;;23.34;58.42
6387;BME280;3226;42.162;24.756;2022-07-22T01:11:25;99651.47;;;23.19;58.83
6387;BME280;3226;42.162;24.756;2022-07-22T01:13:56;99648.16;;;23.30;58.88
6387;BME280;3226;42.162;24.756;2022-07-22T01:16:24;99661.94;;;23.34;58.52
6387;BME280;3226;42.162;24.756;2022-07-22T01:18:53;99657.59;;;23.33;58.57
6387;BME280;3226;42.162;24.756;2022-07-22T01:21:23;99653.06;;;23.33;58.28
6387;BME280;3226;42.162;24.756;2022-07-22T01:23:51;99661.09;;;23.33;58.38
6387;BME280;3226;42.162;24.756;2022-07-22T01:26:19;99668.94;;;23.28;58.54
6387;BME280;3226;42.162;24.756;2022-07-22T01:28:47;99660.50;;;23.11;59.48
6387;BME280;3226;42.162;24.756;2022-07-22T01:31:15;99658.66;;;23.25;58.88
6387;BME280;3226;42.162;24.756;2022-07-22T01:33:44;99660.28;;;23.13;59.68
6387;BME280;3226;42.162;24.756;2022-07-22T01:36:12;99656.81;;;23.19;59.16
6387;BME280;3226;42.162;24.756;2022-07-22T01:38:41;99637.28;;;23.18;58.77
6387;BME280;3226;42.162;24.756;2022-07-22T01:41:09;99652.50;;;22.98;60.31
6387;BME280;3226;42.162;24.756;2022-07-22T01:43:37;99651.31;;;22.73;61.00
6387;BME280;3226;42.162;24.756;2022-07-22T01:46:05;99643.13;;;22.81;60.28
6387;BME280;3226;42.162;24.756;2022-07-22T01:48:34;99646.97;;;22.99;59.85
6387;BME280;3226;42.162;24.756;2022-07-22T01:51:02;99641.22;;;23.02;59.85
6387;BME280;3226;42.162;24.756;2022-07-22T01:53:30;99648.25;;;22.83;60.45
6387;BME280;3226;42.162;24.756;2022-07-22T01:56:00;99645.38;;;22.71;60.96
6387;BME280;3226;42.162;24.756;2022-07-22T01:58:28;99643.50;;;22.78;60.68
6387;BME280;3226;42.162;24.756;2022-07-22T02:01:02;99647.00;;;22.86;60.24
6387;BME280;3226;42.162;24.756;2022-07-22T02:03:30;99644.13;;;22.80;60.49
6387;BME280;3226;42.162;24.756;2022-07-22T02:05:58;99638.56;;;22.95;59.69
6387;BME280;3226;42.162;24.756;2022-07-22T02:08:26;99639.38;;;23.03;59.26
6387;BME280;3226;42.162;24.756;2022-07-22T02:10:54;99638.78;;;22.87;59.71
6387;BME280;3226;42.162;24.756;2022-07-22T02:13:24;99642.47;;;22.93;59.50
6387;BME280;3226;42.162;24.756;2022-07-22T02:15:52;99645.56;;;22.90;59.64
6387;BME280;3226;42.162;24.756;2022-07-22T02:18:20;99635.09;;;22.95;59.35
6387;BME280;3226;42.162;24.756;2022-07-22T02:20:48;99629.75;;;22.95;59.28
6387;BME280;3226;42.162;24.756;2022-07-22T02:23:16;99635.69;;;23.04;59.04
6387;BME280;3226;42.162;24.756;2022-07-22T02:25:45;99631.41;;;22.69;60.47
6387;BME280;3226;42.162;24.756;2022-07-22T02:28:13;99635.91;;;22.21;62.13
6387;BME280;3226;42.162;24.756;2022-07-22T02:30:42;99636.31;;;22.18;63.00
6387;BME280;3226;42.162;24.756;2022-07-22T02:33:10;99637.16;;;22.12;62.84
6387;BME280;3226;42.162;24.756;2022-07-22T02:35:39;99633.03;;;22.16;63.16
6387;BME280;3226;42.162;24.756;2022-07-22T02:38:07;99629.97;;;22.19;63.27
6387;BME280;3226;42.162;24.756;2022-07-22T02:40:35;99627.72;;;22.16;62.96
6387;BME280;3226;42.162;24.756;2022-07-22T02:43:03;99631.63;;;22.20;63.09
6387;BME280;3226;42.162;24.756;2022-07-22T02:45:32;99632.59;;;22.06;63.88
6387;BME280;3226;42.162;24.756;2022-07-22T02:48:02;99632.38;;;21.87;64.18
6387;BME280;3226;42.162;24.756;2022-07-22T02:50:31;99627.00;;;21.74;65.15
6387;BME280;3226;42.162;24.756;2022-07-22T02:52:59;99626.44;;;21.85;64.94
6387;BME280;3226;42.162;24.756;2022-07-22T02:55:27;99621.03;;;21.72;64.98
6387;BME280;3226;42.162;24.756;2022-07-22T02:57:55;99621.28;;;21.84;64.51
6387;BME280;3226;42.162;24.756;2022-07-22T03:00:23;99626.38;;;21.72;64.97
6387;BME280;3226;42.162;24.756;2022-07-22T03:02:51;99616.16;;;21.75;64.94
6387;BME280;3226;42.162;24.756;2022-07-22T03:05:21;99618.47;;;21.43;65.78
6387;BME280;3226;42.162;24.756;2022-07-22T03:07:49;99620.19;;;21.16;66.94
6387;BME280;3226;42.162;24.756;2022-07-22T03:10:17;99624.97;;;21.27;66.68
6387;BME280;3226;42.162;24.756;2022-07-22T03:12:45;99616.94;;;21.20;67.03
6387;BME280;3226;42.162;24.756;2022-07-22T03:15:13;99623.03;;;21.07;67.34
6387;BME280;3226;42.162;24.756;2022-07-22T03:17:41;99633.13;;;21.19;66.94
6387;BME280;3226;42.162;24.756;2022-07-22T03:22:39;99625.72;;;21.14;67.14
6387;BME280;3226;42.162;24.756;2022-07-22T03:25:08;99638.72;;;20.96;68.15
6387;BME280;3226;42.162;24.756;2022-07-22T03:27:36;99635.22;;;20.66;69.29
6387;BME280;3226;42.162;24.756;2022-07-22T03:30:05;99634.03;;;20.69;68.97
6387;BME280;3226;42.162;24.756;2022-07-22T03:32:33;99642.31;;;20.81;68.13
6387;BME280;3226;42.162;24.756;2022-07-22T03:35:02;99645.00;;;20.88;67.99
6387;BME280;3226;42.162;24.756;2022-07-22T03:37:30;99641.34;;;20.89;68.29
6387;BME280;3226;42.162;24.756;2022-07-22T03:40:00;99638.75;;;20.74;68.85
6387;BME280;3226;42.162;24.756;2022-07-22T03:42:29;99637.59;;;20.55;69.69
6387;BME280;3226;42.162;24.756;2022-07-22T03:44:57;99626.25;;;20.46;69.49
6387;BME280;3226;42.162;24.756;2022-07-22T03:47:25;99632.34;;;20.68;69.00
6387;BME280;3226;42.162;24.756;2022-07-22T03:49:53;99640.66;;;20.80;68.83
6387;BME280;3226;42.162;24.756;2022-07-22T03:52:21;99645.41;;;20.85;68.65
6387;BME280;3226;42.162;24.756;2022-07-22T03:54:49;99649.94;;;20.62;69.38
6387;BME280;3226;42.162;24.756;2022-07-22T03:57:18;99652.09;;;20.52;69.81
6387;BME280;3226;42.162;24.756;2022-07-22T03:59:47;99653.56;;;20.33;70.57
6387;BME280;3226;42.162;24.756;2022-07-22T04:02:15;99657.44;;;20.30;70.72
6387;BME280;3226;42.162;24.756;2022-07-22T04:04:43;99660.84;;;20.24;71.37
6387;BME280;3226;42.162;24.756;2022-07-22T04:07:11;99663.41;;;19.96;72.63
6387;BME280;3226;42.162;24.756;2022-07-22T04:09:39;99659.50;;;19.91;72.67
6387;BME280;3226;42.162;24.756;2022-07-22T04:12:07;99655.19;;;19.90;72.95
6387;BME280;3226;42.162;24.756;2022-07-22T04:14:37;99651.69;;;19.90;72.84
6387;BME280;3226;42.162;24.756;2022-07-22T04:17:05;99653.09;;;19.86;73.40
6387;BME280;3226;42.162;24.756;2022-07-22T04:19:41;99659.75;;;19.97;72.97
6387;BME280;3226;42.162;24.756;2022-07-22T04:22:09;99657.63;;;20.07;72.39
6387;BME280;3226;42.162;24.756;2022-07-22T04:24:37;99659.13;;;20.16;72.23
6387;BME280;3226;42.162;24.756;2022-07-22T04:27:05;99655.66;;;20.16;72.53
6387;BME280;3226;42.162;24.756;2022-07-22T04:29:33;99656.72;;;20.21;72.30
6387;BME280;3226;42.162;24.756;2022-07-22T04:32:02;99652.81;;;20.39;71.58
6387;BME280;3226;42.162;24.756;2022-07-22T04:34:30;99661.41;;;20.41;71.58
6387;BME280;3226;42.162;24.756;2022-07-22T04:36:58;99659.31;;;20.58;70.84
6387;BME280;3226;42.162;24.756;2022-07-22T04:39:26;99660.97;;;20.88;69.88
6387;BME280;3226;42.162;24.756;2022-07-22T04:41:54;99676.16;;;20.94;69.59
6387;BME280;3226;42.162;24.756;2022-07-22T04:44:23;99671.13;;;21.06;68.90
6387;BME280;3226;42.162;24.756;2022-07-22T04:46:51;99672.38;;;21.10;68.57
6387;BME280;3226;42.162;24.756;2022-07-22T04:49:20;99676.13;;;21.16;68.28
6387;BME280;3226;42.162;24.756;2022-07-22T04:51:48;99672.78;;;21.07;69.24
6387;BME280;3226;42.162;24.756;2022-07-22T04:54:16;99668.03;;;21.02;69.13
6387;BME280;3226;42.162;24.756;2022-07-22T04:56:47;99675.72;;;21.19;68.66
6387;BME280;3226;42.162;24.756;2022-07-22T05:01:43;99670.00;;;21.22;67.96
6387;BME280;3226;42.162;24.756;2022-07-22T05:04:11;99672.09;;;21.33;67.97
6387;BME280;3226;42.162;24.756;2022-07-22T05:06:41;99671.53;;;21.38;67.52
6387;BME280;3226;42.162;24.756;2022-07-22T05:09:09;99664.59;;;21.50;67.61
6387;BME280;3226;42.162;24.756;2022-07-22T05:11:37;99667.06;;;21.52;67.48
6387;BME280;3226;42.162;24.756;2022-07-22T05:14:05;99664.56;;;21.79;66.77
6387;BME280;3226;42.162;24.756;2022-07-22T05:16:35;99667.84;;;21.94;66.31
6387;BME280;3226;42.162;24.756;2022-07-22T05:19:04;99676.66;;;21.88;66.82
6387;BME280;3226;42.162;24.756;2022-07-22T05:21:33;99661.09;;;21.99;65.97
6387;BME280;3226;42.162;24.756;2022-07-22T05:24:03;99670.38;;;22.43;64.75
6387;BME280;3226;42.162;24.756;2022-07-22T05:26:31;99671.25;;;22.71;63.36
6387;BME280;3226;42.162;24.756;2022-07-22T05:29:00;99672.06;;;22.85;62.93
6387;BME280;3226;42.162;24.756;2022-07-22T05:31:28;99675.94;;;23.02;62.06
6387;BME280;3226;42.162;24.756;2022-07-22T05:33:56;99662.16;;;23.19;61.68
6387;BME280;3226;42.162;24.756;2022-07-22T05:36:24;99675.91;;;23.36;61.40
6387;BME280;3226;42.162;24.756;2022-07-22T05:38:52;99674.59;;;23.52;60.89
6387;BME280;3226;42.162;24.756;2022-07-22T05:41:22;99672.31;;;23.56;60.91
6387;BME280;3226;42.162;24.756;2022-07-22T05:43:50;99670.22;;;23.64;60.22
6387;BME280;3226;42.162;24.756;2022-07-22T05:46:18;99671.53;;;23.42;60.92
6387;BME280;3226;42.162;24.756;2022-07-22T05:48:47;99664.84;;;23.71;60.49
6387;BME280;3226;42.162;24.756;2022-07-22T05:51:15;99659.25;;;23.79;59.22
6387;BME280;3226;42.162;24.756;2022-07-22T05:53:43;99643.34;;;23.52;59.92
6387;BME280;3226;42.162;24.756;2022-07-22T05:56:11;99660.91;;;23.80;60.03
6387;BME280;3226;42.162;24.756;2022-07-22T05:58:41;99663.91;;;23.91;59.34
6387;BME280;3226;42.162;24.756;2022-07-22T06:01:10;99667.69;;;24.15;58.32
6387;BME280;3226;42.162;24.756;2022-07-22T06:03:39;99655.00;;;24.36;57.99
6387;BME280;3226;42.162;24.756;2022-07-22T06:06:08;99656.44;;;24.64;57.16
6387;BME280;3226;42.162;24.756;2022-07-22T06:08:36;99657.53;;;24.56;56.69
6387;BME280;3226;42.162;24.756;2022-07-22T06:11:05;99653.97;;;24.62;56.23
6387;BME280;3226;42.162;24.756;2022-07-22T06:13:34;99654.28;;;24.73;56.22
6387;BME280;3226;42.162;24.756;2022-07-22T06:16:04;99656.16;;;24.72;56.23
6387;BME280;3226;42.162;24.756;2022-07-22T06:18:33;99654.38;;;24.66;56.64
6387;BME280;3226;42.162;24.756;2022-07-22T06:21:01;99657.16;;;24.78;56.24
6387;BME280;3226;42.162;24.756;2022-07-22T06:23:29;99652.19;;;24.81;55.70
6387;BME280;3226;42.162;24.756;2022-07-22T06:25:57;99649.16;;;24.96;55.90
6387;BME280;3226;42.162;24.756;2022-07-22T06:28:25;99650.47;;;25.06;55.30
6387;BME280;3226;42.162;24.756;2022-07-22T06:30:53;99649.69;;;25.05;55.07
6387;BME280;3226;42.162;24.756;2022-07-22T06:33:23;99646.84;;;25.19;54.33
6387;BME280;3226;42.162;24.756;2022-07-22T06:35:51;99657.44;;;25.32;53.42
6387;BME280;3226;42.162;24.756;2022-07-22T06:38:19;99643.72;;;25.22;53.37
6387;BME280;3226;42.162;24.756;2022-07-22T06:40:57;99642.38;;;25.31;52.66
6387;BME280;3226;42.162;24.756;2022-07-22T06:43:26;99640.19;;;25.40;52.42
6387;BME280;3226;42.162;24.756;2022-07-22T06:45:54;99628.91;;;25.19;51.93
6387;BME280;3226;42.162;24.756;2022-07-22T06:48:24;99647.50;;;25.33;51.57
6387;BME280;3226;42.162;24.756;2022-07-22T06:50:52;99645.69;;;25.45;50.94
6387;BME280;3226;42.162;24.756;2022-07-22T06:53:20;99648.84;;;26.22;49.32
6387;BME280;3226;42.162;24.756;2022-07-22T06:55:49;99646.75;;;26.48;48.97
6387;BME280;3226;42.162;24.756;2022-07-22T06:58:16;99649.59;;;26.53;48.94
6387;BME280;3226;42.162;24.756;2022-07-22T07:00:45;99646.19;;;26.58;48.56
6387;BME280;3226;42.162;24.756;2022-07-22T07:03:13;99648.75;;;26.52;48.59
6387;BME280;3226;42.162;24.756;2022-07-22T07:06:03;99639.53;;;26.48;48.97
6387;BME280;3226;42.162;24.756;2022-07-22T07:08:31;99644.31;;;26.46;48.72
6387;BME280;3226;42.162;24.756;2022-07-22T07:10:59;99643.81;;;26.25;49.04
6387;BME280;3226;42.162;24.756;2022-07-22T07:13:27;99636.97;;;26.41;48.79
6387;BME280;3226;42.162;24.756;2022-07-22T07:15:55;99644.56;;;26.56;47.88
6387;BME280;3226;42.162;24.756;2022-07-22T07:18:24;99641.97;;;26.50;47.85
6387;BME280;3226;42.162;24.756;2022-07-22T07:20:52;99651.53;;;26.34;48.17
6387;BME280;3226;42.162;24.756;2022-07-22T07:23:22;99651.66;;;26.63;48.45
6387;BME280;3226;42.162;24.756;2022-07-22T07:25:50;99651.13;;;26.84;48.49
6387;BME280;3226;42.162;24.756;2022-07-22T07:28:19;99649.25;;;26.97;47.47
6387;BME280;3226;42.162;24.756;2022-07-22T07:30:47;99636.75;;;27.03;46.30
6387;BME280;3226;42.162;24.756;2022-07-22T07:33:16;99648.28;;;27.15;46.59
6387;BME280;3226;42.162;24.756;2022-07-22T07:35:45;99645.09;;;27.18;46.25
6387;BME280;3226;42.162;24.756;2022-07-22T07:38:13;99646.34;;;27.39;45.77
6387;BME280;3226;42.162;24.756;2022-07-22T07:40:42;99645.97;;;27.48;45.33
6387;BME280;3226;42.162;24.756;2022-07-22T07:43:11;99649.03;;;27.51;45.53
6387;BME280;3226;42.162;24.756;2022-07-22T07:45:39;99643.03;;;27.61;45.48
6387;BME280;3226;42.162;24.756;2022-07-22T07:48:07;99654.28;;;27.58;45.70
6387;BME280;3226;42.162;24.756;2022-07-22T07:50:35;99650.97;;;27.68;45.36
6387;BME280;3226;42.162;24.756;2022-07-22T07:53:03;99650.00;;;27.74;44.83
6387;BME280;3226;42.162;24.756;2022-07-22T07:55:33;99656.28;;;27.80;44.83
6387;BME280;3226;42.162;24.756;2022-07-22T07:58:06;99643.66;;;27.80;45.10
6387;BME280;3226;42.162;24.756;2022-07-22T08:00:35;99652.81;;;27.67;44.80
6387;BME280;3226;42.162;24.756;2022-07-22T08:03:03;99646.09;;;27.53;44.35
6387;BME280;3226;42.162;24.756;2022-07-22T08:05:33;99647.34;;;27.62;44.70
6387;BME280;3226;42.162;24.756;2022-07-22T08:08:01;99646.09;;;27.82;45.30
6387;BME280;3226;42.162;24.756;2022-07-22T08:10:37;99651.75;;;27.97;44.10
6387;BME280;3226;42.162;24.756;2022-07-22T08:13:25;99648.16;;;28.09;43.78
6387;BME280;3226;42.162;24.756;2022-07-22T08:15:54;99646.75;;;28.18;43.43
6387;BME280;3226;42.162;24.756;2022-07-22T08:18:24;99641.69;;;28.22;42.72
6387;BME280;3226;42.162;24.756;2022-07-22T08:20:52;99640.69;;;28.28;42.80
6387;BME280;3226;42.162;24.756;2022-07-22T08:23:21;99630.53;;;28.30;41.08
6387;BME280;3226;42.162;24.756;2022-07-22T08:25:49;99638.41;;;28.20;41.45
6387;BME280;3226;42.162;24.756;2022-07-22T08:28:17;99637.44;;;28.26;41.04
6387;BME280;3226;42.162;24.756;2022-07-22T08:30:47;99630.91;;;28.39;41.34
6387;BME280;3226;42.162;24.756;2022-07-22T08:33:15;99630.25;;;28.49;41.11
6387;BME280;3226;42.162;24.756;2022-07-22T08:35:43;99631.53;;;28.63;41.01
6387;BME280;3226;42.162;24.756;2022-07-22T08:38:11;99620.75;;;28.63;40.94
6387;BME280;3226;42.162;24.756;2022-07-22T08:40:39;99629.75;;;28.69;40.50
6387;BME280;3226;42.162;24.756;2022-07-22T08:43:07;99630.53;;;28.47;39.12
6387;BME280;3226;42.162;24.756;2022-07-22T08:45:35;99632.88;;;28.26;39.35
6387;BME280;3226;42.162;24.756;2022-07-22T08:48:05;99632.88;;;28.43;39.13
6387;BME280;3226;42.162;24.756;2022-07-22T08:50:34;99636.03;;;28.75;39.61
6387;BME280;3226;42.162;24.756;2022-07-22T08:53:02;99636.34;;;28.78;38.36
6387;BME280;3226;42.162;24.756;2022-07-22T08:55:30;99643.28;;;28.91;38.39
6387;BME280;3226;42.162;24.756;2022-07-22T08:57:58;99638.22;;;28.95;38.57
6387;BME280;3226;42.162;24.756;2022-07-22T09:00:26;99630.47;;;28.81;38.49
6387;BME280;3226;42.162;24.756;2022-07-22T09:02:54;99638.38;;;28.88;39.24
6387;BME280;3226;42.162;24.756;2022-07-22T09:05:32;99636.53;;;29.11;38.87
6387;BME280;3226;42.162;24.756;2022-07-22T09:08:11;99639.66;;;29.25;38.55
6387;BME280;3226;42.162;24.756;2022-07-22T09:10:39;99640.44;;;29.42;38.61
6387;BME280;3226;42.162;24.756;2022-07-22T09:13:08;99638.91;;;29.52;38.46
6387;BME280;3226;42.162;24.756;2022-07-22T09:15:39;99637.41;;;29.39;38.24
6387;BME280;3226;42.162;24.756;2022-07-22T09:18:13;99637.16;;;29.40;37.93
6387;BME280;3226;42.162;24.756;2022-07-22T09:20:42;99638.84;;;29.47;37.99
6387;BME280;3226;42.162;24.756;2022-07-22T09:23:14;99630.63;;;29.58;37.36
6387;BME280;3226;42.162;24.756;2022-07-22T09:25:44;99635.41;;;29.79;37.33
6387;BME280;3226;42.162;24.756;2022-07-22T09:28:18;99631.66;;;30.07;37.30
6387;BME280;3226;42.162;24.756;2022-07-22T09:30:52;99633.84;;;30.10;36.60
6387;BME280;3226;42.162;24.756;2022-07-22T09:33:23;99627.91;;;30.13;36.88
6387;BME280;3226;42.162;24.756;2022-07-22T09:36:01;99623.25;;;30.04;36.91
6387;BME280;3226;42.162;24.756;2022-07-22T09:38:30;99630.31;;;30.10;36.71
6387;BME280;3226;42.162;24.756;2022-07-22T09:41:03;99628.84;;;30.29;35.93
6387;BME280;3226;42.162;24.756;2022-07-22T09:43:35;99616.41;;;30.66;35.35
6387;BME280;3226;42.162;24.756;2022-07-22T09:46:03;99624.72;;;31.08;34.80
6387;BME280;3226;42.162;24.756;2022-07-22T09:48:32;99622.22;;;31.75;34.20
6387;BME280;3226;42.162;24.756;2022-07-22T09:51:02;99620.09;;;32.55;32.67
6387;BME280;3226;42.162;24.756;2022-07-22T09:53:31;99612.09;;;33.00;31.87
6387;BME280;3226;42.162;24.756;2022-07-22T09:56:02;99608.84;;;32.98;31.34
6387;BME280;3226;42.162;24.756;2022-07-22T09:58:31;99619.84;;;33.27;31.65
6387;BME280;3226;42.162;24.756;2022-07-22T10:01:02;99612.78;;;33.31;31.26
6387;BME280;3226;42.162;24.756;2022-07-22T10:03:33;99609.16;;;32.96;32.12
6387;BME280;3226;42.162;24.756;2022-07-22T10:06:06;99613.34;;;32.42;32.55
6387;BME280;3226;42.162;24.756;2022-07-22T10:08:34;99607.91;;;31.95;33.43
6387;BME280;3226;42.162;24.756;2022-07-22T10:11:05;99606.84;;;31.76;34.11
6387;BME280;3226;42.162;24.756;2022-07-22T10:13:33;99603.25;;;31.59;34.56
6387;BME280;3226;42.162;24.756;2022-07-22T10:16:02;99605.72;;;31.71;34.53
6387;BME280;3226;42.162;24.756;2022-07-22T10:18:31;99599.00;;;31.95;33.72
6387;BME280;3226;42.162;24.756;2022-07-22T10:21:01;99603.28;;;31.75;33.50
6387;BME280;3226;42.162;24.756;2022-07-22T10:23:31;99600.56;;;31.49;34.21
6387;BME280;3226;42.162;24.756;2022-07-22T10:26:01;99593.22;;;31.44;34.38
6387;BME280;3226;42.162;24.756;2022-07-22T10:28:31;99595.16;;;31.70;33.75
6387;BME280;3226;42.162;24.756;2022-07-22T10:31:20;99598.72;;;31.81;34.48
6387;BME280;3226;42.162;24.756;2022-07-22T10:33:50;99583.84;;;31.89;35.96
6387;BME280;3226;42.162;24.756;2022-07-22T10:36:32;99585.16;;;31.65;34.68
6387;BME280;3226;42.162;24.756;2022-07-22T10:39:07;99581.88;;;31.58;33.56
6387;BME280;3226;42.162;24.756;2022-07-22T10:41:37;99583.50;;;31.64;33.71
6387;BME280;3226;42.162;24.756;2022-07-22T10:44:05;99574.63;;;31.95;33.96
6387;BME280;3226;42.162;24.756;2022-07-22T10:46:52;99575.97;;;32.13;33.60
6387;BME280;3226;42.162;24.756;2022-07-22T10:49:21;99580.28;;;32.24;33.12
6387;BME280;3226;42.162;24.756;2022-07-22T10:52:11;99571.03;;;32.51;33.09
6387;BME280;3226;42.162;24.756;2022-07-22T10:55:16;99580.75;;;32.63;33.08
6387;BME280;3226;42.162;24.756;2022-07-22T10:57:46;99575.03;;;32.74;32.52
6387;BME280;3226;42.162;24.756;2022-07-22T11:00:15;99573.69;;;32.77;32.46
6387;BME280;3226;42.162;24.756;2022-07-22T11:02:44;99574.03;;;32.44;31.47
6387;BME280;3226;42.162;24.756;2022-07-22T11:05:12;99571.06;;;32.41;31.77
6387;BME280;3226;42.162;24.756;2022-07-22T11:07:41;99570.47;;;32.59;31.74
6387;BME280;3226;42.162;24.756;2022-07-22T11:10:11;99574.03;;;32.55;30.99
6387;BME280;3226;42.162;24.756;2022-07-22T11:12:47;99569.06;;;32.72;30.87
6387;BME280;3226;42.162;24.756;2022-07-22T11:15:17;99565.25;;;32.79;30.10
6387;BME280;3226;42.162;24.756;2022-07-22T11:17:45;99562.56;;;32.73;30.12
6387;BME280;3226;42.162;24.756;2022-07-22T11:20:13;99552.88;;;32.47;30.55
6387;BME280;3226;42.162;24.756;2022-07-22T11:22:41;99568.00;;;32.68;31.32
6387;BME280;3226;42.162;24.756;2022-07-22T11:25:10;99550.31;;;32.92;30.89
6387;BME280;3226;42.162;24.756;2022-07-22T11:27:39;99560.06;;;32.93;29.61
6387;BME280;3226;42.162;24.756;2022-07-22T11:30:09;99552.97;;;33.02;29.86
6387;BME280;3226;42.162;24.756;2022-07-22T11:32:42;99549.63;;;33.21;29.94
6387;BME280;3226;42.162;24.756;2022-07-22T11:35:11;99545.84;;;33.16;29.10
6387;BME280;3226;42.162;24.756;2022-07-22T11:37:39;99542.84;;;33.18;29.38
6387;BME280;3226;42.162;24.756;2022-07-22T11:40:09;99561.19;;;33.42;30.06
6387;BME280;3226;42.162;24.756;2022-07-22T11:42:37;99550.59;;;33.35;29.57
6387;BME280;3226;42.162;24.756;2022-07-22T11:45:06;99543.53;;;33.44;29.48
6387;BME280;3226;42.162;24.756;2022-07-22T11:47:36;99540.66;;;33.65;28.64
6387;BME280;3226;42.162;24.756;2022-07-22T11:50:05;99524.59;;;33.69;28.86
6387;BME280;3226;42.162;24.756;2022-07-22T11:52:33;99538.50;;;33.62;29.18
6387;BME280;3226;42.162;24.756;2022-07-22T11:55:01;99531.13;;;33.68;28.61
6387;BME280;3226;42.162;24.756;2022-07-22T11:57:29;99539.44;;;33.77;28.00
6387;BME280;3226;42.162;24.756;2022-07-22T12:00:06;99536.09;;;33.61;28.93
6387;BME280;3226;42.162;24.756;2022-07-22T12:02:35;99531.84;;;33.44;28.53
6387;BME280;3226;42.162;24.756;2022-07-22T12:05:04;99531.53;;;33.51;28.91
6387;BME280;3226;42.162;24.756;2022-07-22T12:07:53;99531.34;;;33.71;28.33
6387;BME280;3226;42.162;24.756;2022-07-22T12:10:22;99528.06;;;33.74;28.04
6387;BME280;3226;42.162;24.756;2022-07-22T12:12:50;99527.47;;;33.83;27.69
6387;BME280;3226;42.162;24.756;2022-07-22T12:15:18;99524.63;;;33.98;26.33
6387;BME280;3226;42.162;24.756;2022-07-22T12:18:21;99524.00;;;34.07;26.29
6387;BME280;3226;42.162;24.756;2022-07-22T12:20:51;99522.44;;;34.00;25.89
6387;BME280;3226;42.162;24.756;2022-07-22T12:23:21;99507.25;;;34.24;26.41
6387;BME280;3226;42.162;24.756;2022-07-22T12:25:55;99505.41;;;34.19;24.86
6387;BME280;3226;42.162;24.756;2022-07-22T12:28:23;99510.78;;;34.24;25.63
6387;BME280;3226;42.162;24.756;2022-07-22T12:30:54;99507.88;;;34.15;25.91
6387;BME280;3226;42.162;24.756;2022-07-22T12:33:24;99507.19;;;34.05;25.37
6387;BME280;3226;42.162;24.756;2022-07-22T12:36:00;99515.13;;;34.01;25.29
6387;BME280;3226;42.162;24.756;2022-07-22T12:38:29;99508.34;;;34.23;25.02
6387;BME280;3226;42.162;24.756;2022-07-22T12:41:24;99511.06;;;33.98;25.08
6387;BME280;3226;42.162;24.756;2022-07-22T12:43:53;99505.66;;;33.93;24.82
6387;BME280;3226;42.162;24.756;2022-07-22T12:46:21;99499.03;;;34.05;24.65
6387;BME280;3226;42.162;24.756;2022-07-22T12:48:54;99499.22;;;34.38;24.81
6387;BME280;3226;42.162;24.756;2022-07-22T12:51:27;99497.72;;;34.51;24.19
6387;BME280;3226;42.162;24.756;2022-07-22T12:53:55;99500.97;;;34.53;24.76
6387;BME280;3226;42.162;24.756;2022-07-22T12:56:23;99496.44;;;34.43;24.21
6387;BME280;3226;42.162;24.756;2022-07-22T12:59:00;99489.25;;;34.57;24.13
6387;BME280;3226;42.162;24.756;2022-07-22T13:01:28;99494.38;;;34.59;24.96
6387;BME280;3226;42.162;24.756;2022-07-22T13:03:58;99484.16;;;34.70;24.89
6387;BME280;3226;42.162;24.756;2022-07-22T13:06:27;99493.16;;;34.89;24.70
6387;BME280;3226;42.162;24.756;2022-07-22T13:08:55;99476.34;;;34.87;24.05
6387;BME280;3226;42.162;24.756;2022-07-22T13:11:23;99480.59;;;34.94;24.27
6387;BME280;3226;42.162;24.756;2022-07-22T13:13:51;99496.09;;;35.12;23.71
6387;BME280;3226;42.162;24.756;2022-07-22T13:16:19;99492.22;;;34.99;22.59
6387;BME280;3226;42.162;24.756;2022-07-22T13:18:49;99492.50;;;34.98;22.37
6387;BME280;3226;42.162;24.756;2022-07-22T13:21:19;99496.31;;;34.78;22.81
6387;BME280;3226;42.162;24.756;2022-07-22T13:23:47;99487.34;;;34.96;22.58
6387;BME280;3226;42.162;24.756;2022-07-22T13:26:15;99482.72;;;34.97;23.01
6387;BME280;3226;42.162;24.756;2022-07-22T13:28:43;99481.03;;;35.20;23.33